createdAt,value
2022-11-05T00:00:03.840Z,7.4
2022-11-05T00:06:35.760Z,7.5
2022-11-05T00:08:40.280Z,7.5
2022-11-05T00:10:41.623Z,7.5
2022-11-05T00:12:43.029Z,7.5
2022-11-05T00:14:44.408Z,7.5
2022-11-05T00:16:45.923Z,7.5
2022-11-05T00:18:47.170Z,7.5
2022-11-05T00:20:48.549Z,7.5
2022-11-05T00:22:53.234Z,7.4
2022-11-05T00:24:54.609Z,7.4
2022-11-05T00:26:56.002Z,7.4
2022-11-05T00:28:57.397Z,7.4
2022-11-05T00:30:58.770Z,7.4
2022-11-05T00:33:00.146Z,7.4
2022-11-05T00:35:01.525Z,7.3
2022-11-05T00:37:06.251Z,7.2
2022-11-05T00:39:07.597Z,7.1
2022-11-05T00:41:08.975Z,7.1
2022-11-05T00:43:10.559Z,7
2022-11-05T00:45:11.732Z,7
2022-11-05T00:47:13.117Z,7
2022-11-05T00:49:14.495Z,6.9
2022-11-05T00:51:19.184Z,6.8
2022-11-05T00:53:20.560Z,6.8
2022-11-05T00:55:21.924Z,6.7
2022-11-05T00:56:24.278Z,6.7
2022-11-05T00:58:25.635Z,6.6
2022-11-05T01:00:27.044Z,6.7
2022-11-05T01:02:28.490Z,6.6
2022-11-05T01:04:33.059Z,6.5
2022-11-05T01:06:34.469Z,6.5
2022-11-05T01:08:35.834Z,6.4
2022-11-05T01:10:37.239Z,6.4
2022-11-05T01:12:38.588Z,6.4
2022-11-05T01:14:39.962Z,6.4
2022-11-05T01:16:41.318Z,6.4
2022-11-05T01:18:45.965Z,6.4
2022-11-05T01:20:47.375Z,6.4
2022-11-05T01:22:48.728Z,6.5
2022-11-05T01:24:50.112Z,6.6
2022-11-05T01:26:51.472Z,6.5
2022-11-05T01:28:53.006Z,6.4
2022-11-05T01:30:54.216Z,6.4
2022-11-05T01:32:58.889Z,6.4
2022-11-05T01:35:00.245Z,6.4
2022-11-05T01:37:01.650Z,6.4
2022-11-05T01:39:02.992Z,6.4
2022-11-05T01:41:04.363Z,6.5
2022-11-05T01:43:05.720Z,6.6
2022-11-05T01:45:07.094Z,6.6
2022-11-05T01:47:11.806Z,6.4
2022-11-05T01:49:13.225Z,6.4
2022-11-05T01:51:14.652Z,6.5
2022-11-05T01:52:16.976Z,6.5
2022-11-05T01:54:18.325Z,6.4
2022-11-05T01:56:19.711Z,6.4
2022-11-05T01:58:21.070Z,6.4
2022-11-05T02:00:25.736Z,6.3
2022-11-05T02:02:27.220Z,6.4
2022-11-05T02:04:28.507Z,6.5
2022-11-05T02:06:29.911Z,6.5
2022-11-05T02:08:31.316Z,6.7
2022-11-05T02:10:32.700Z,6.7
2022-11-05T02:12:34.059Z,6.9
2022-11-05T02:14:38.766Z,6.9
2022-11-05T02:16:40.156Z,6.8
2022-11-05T02:18:41.501Z,6.8
2022-11-05T02:20:45.712Z,6.7
2022-11-05T02:22:44.267Z,6.7
2022-11-05T02:24:45.628Z,6.6
2022-11-05T02:26:46.996Z,6.5
2022-11-05T02:28:51.653Z,6.5
2022-11-05T02:30:53.035Z,6.4
2022-11-05T02:32:54.404Z,6.4
2022-11-05T02:34:55.772Z,6.3
2022-11-05T02:36:57.135Z,6.3
2022-11-05T02:45:05.971Z,6.2
2022-11-05T02:47:07.329Z,6.1
2022-11-05T02:48:09.654Z,6
2022-11-05T02:50:11.064Z,6
2022-11-05T02:52:12.472Z,6
2022-11-05T02:54:13.865Z,6.1
2022-11-05T02:56:18.518Z,6.2
2022-11-05T02:58:19.880Z,6.2
2022-11-05T03:00:21.247Z,6.1
2022-11-05T03:02:22.744Z,6.2
2022-11-05T03:10:31.389Z,6.3
2022-11-05T03:12:32.751Z,6.3
2022-11-05T03:14:34.136Z,6.3
2022-11-05T03:16:35.461Z,6.4
2022-11-05T03:18:36.848Z,6.3
2022-11-05T03:20:38.201Z,6.3
2022-11-05T03:22:39.560Z,6.4
2022-11-05T03:24:44.230Z,6.4
2022-11-05T03:26:45.587Z,6.4
2022-11-05T03:28:46.950Z,6.4
2022-11-05T03:30:48.333Z,6.4
2022-11-05T03:32:49.767Z,6.4
2022-11-05T03:34:51.150Z,6.4
2022-11-05T03:36:52.487Z,6.5
2022-11-05T03:38:58.718Z,6.5
2022-11-05T03:41:00.045Z,6.4
2022-11-05T03:43:01.413Z,6.4
2022-11-05T03:45:30.278Z,6.3
2022-11-05T03:47:31.668Z,6.2
2022-11-05T03:49:33.024Z,6.3
2022-11-05T03:51:37.681Z,6.3
2022-11-05T03:53:39.078Z,6.2
2022-11-05T03:55:40.430Z,6.3
2022-11-05T03:57:41.768Z,6.2
2022-11-05T03:59:43.164Z,6.3
2022-11-05T04:01:44.700Z,6.2
2022-11-05T04:03:45.883Z,6.1
2022-11-05T04:05:50.545Z,6.1
2022-11-05T04:07:51.897Z,6.1
2022-11-05T04:09:53.338Z,6
2022-11-05T04:17:58.707Z,6.1
2022-11-05T04:20:03.401Z,5.9
2022-11-05T04:22:04.773Z,5.9
2022-11-05T04:24:06.117Z,5.9
2022-11-05T04:26:07.601Z,5.9
2022-11-05T04:28:08.854Z,5.9
2022-11-05T04:38:18.966Z,6.1
2022-11-05T04:39:21.318Z,6.2
2022-11-05T04:41:22.675Z,6.2
2022-11-05T04:43:24.235Z,6.2
2022-11-05T04:45:25.371Z,6.2
2022-11-05T04:47:30.168Z,6.2
2022-11-05T04:49:31.509Z,6.2
2022-11-05T04:51:32.856Z,6.2
2022-11-05T04:53:34.222Z,6.3
2022-11-05T04:55:35.574Z,6.2
2022-11-05T04:57:36.949Z,6.1
2022-11-05T04:59:38.330Z,6.1
2022-11-05T05:01:43.104Z,6.3
2022-11-05T05:03:44.445Z,6.4
2022-11-05T05:05:45.777Z,6.4
2022-11-05T05:07:47.145Z,6.4
2022-11-05T05:13:51.225Z,6.2
2022-11-05T05:15:55.899Z,6.2
2022-11-05T05:17:57.267Z,6.2
2022-11-05T05:19:58.624Z,6.1
2022-11-05T05:21:59.983Z,6.1
2022-11-05T05:24:01.355Z,6
2022-11-05T05:26:02.699Z,6
2022-11-05T05:28:04.076Z,6
2022-11-05T05:30:08.714Z,5.9
2022-11-05T05:34:11.415Z,5.9
2022-11-05T05:35:13.778Z,5.9
2022-11-05T05:37:15.151Z,5.9
2022-11-05T05:39:16.482Z,5.9
2022-11-05T05:41:17.827Z,5.9
2022-11-05T05:43:22.496Z,6
2022-11-05T05:45:23.867Z,5.9
2022-11-05T05:47:25.267Z,5.8
2022-11-05T05:49:26.684Z,5.9
2022-11-05T05:51:28.081Z,5.8
2022-11-05T05:53:29.420Z,5.9
2022-11-05T05:55:30.786Z,5.9
2022-11-05T05:57:35.443Z,5.8
2022-11-05T05:59:36.769Z,5.8
2022-11-05T06:01:38.326Z,5.8
2022-11-05T06:03:39.503Z,5.8
2022-11-05T06:05:40.882Z,5.9
2022-11-05T06:07:42.303Z,5.8
2022-11-05T06:09:43.657Z,5.8
2022-11-05T06:11:48.295Z,5.8
2022-11-05T06:13:49.654Z,5.7
2022-11-05T06:15:51.012Z,5.7
2022-11-05T06:17:52.367Z,5.8
2022-11-05T06:19:53.701Z,5.8
2022-11-05T06:21:55.063Z,5.7
2022-11-05T06:23:56.419Z,5.8
2022-11-05T06:26:01.084Z,5.8
2022-11-05T06:28:02.413Z,5.7
2022-11-05T06:30:03.824Z,5.8
2022-11-05T06:31:06.202Z,5.8
2022-11-05T06:37:10.368Z,5.8
2022-11-05T06:39:15.033Z,5.8
2022-11-05T06:41:16.399Z,5.9
2022-11-05T06:43:17.730Z,5.9
2022-11-05T06:45:19.096Z,6
2022-11-05T06:49:21.801Z,6.3
2022-11-05T06:51:23.156Z,6.4
2022-11-05T06:53:27.807Z,6.6
2022-11-05T06:57:30.538Z,6.7
2022-11-05T06:59:31.900Z,6.7
2022-11-05T07:01:33.468Z,6.8
2022-11-05T07:03:34.689Z,6.9
2022-11-05T07:05:36.056Z,7
2022-11-05T07:09:42.116Z,7.3
2022-11-05T07:11:43.484Z,7.4
2022-11-05T07:15:46.183Z,7.5
2022-11-05T07:17:47.539Z,7.7
2022-11-05T07:19:48.957Z,7.8
2022-11-05T07:21:53.618Z,8
2022-11-05T07:23:54.961Z,8.2
2022-11-05T07:25:56.334Z,8.4
2022-11-05T07:28:19.377Z,8.8
2022-11-05T07:30:20.759Z,8.9
2022-11-05T07:32:22.116Z,9
2022-11-05T07:34:26.791Z,9
2022-11-05T07:40:30.910Z,9.3
2022-11-05T07:42:32.281Z,9.3
2022-11-05T07:44:34.206Z,9.6
2022-11-05T07:46:35.612Z,9.6
2022-11-05T07:50:41.592Z,9.7
2022-11-05T07:52:42.997Z,9.8
2022-11-05T07:54:44.385Z,9.9
2022-11-05T07:56:45.733Z,9.8
2022-11-05T07:58:47.112Z,10
2022-11-05T08:00:48.670Z,10
2022-11-05T08:02:53.335Z,9.9
2022-11-05T08:04:54.577Z,10.1
2022-11-05T08:06:55.961Z,10.3
2022-11-05T08:08:57.335Z,10.3
2022-11-05T08:10:58.691Z,10.1
2022-11-05T08:13:00.068Z,10.2
2022-11-05T08:15:01.456Z,10.2
2022-11-05T08:17:06.160Z,10.4
2022-11-05T08:19:07.539Z,10.4
2022-11-05T08:21:08.933Z,10.5
2022-11-05T08:22:11.276Z,10.6
2022-11-05T08:24:12.651Z,10.7
2022-11-05T08:26:14.169Z,11
2022-11-05T08:28:15.447Z,10.9
2022-11-05T08:30:20.100Z,11.1
2022-11-05T08:32:21.490Z,11.1
2022-11-05T08:34:22.903Z,11.2
2022-11-05T08:36:24.291Z,10.9
2022-11-05T08:38:25.653Z,11.1
2022-11-05T08:40:27.070Z,11.2
2022-11-05T08:42:28.449Z,11.5
2022-11-05T08:44:33.157Z,11.8
2022-11-05T08:46:40.387Z,11.8
2022-11-05T08:48:35.966Z,11.8
2022-11-05T08:50:37.382Z,11.9
2022-11-05T08:52:38.781Z,11.6
2022-11-05T08:54:40.152Z,11.8
2022-11-05T08:56:41.526Z,12
2022-11-05T08:58:46.267Z,11.8
2022-11-05T09:00:47.776Z,11.8
2022-11-05T09:02:49.035Z,11.6
2022-11-05T09:04:50.441Z,12
2022-11-05T09:06:51.837Z,11.9
2022-11-05T09:10:54.648Z,12.2
2022-11-05T09:12:59.334Z,12
2022-11-05T09:15:00.733Z,12.2
2022-11-05T09:17:02.122Z,12.3
2022-11-05T09:18:04.479Z,12.3
2022-11-05T09:20:05.887Z,12.3
2022-11-05T09:22:07.272Z,12.3
2022-11-05T09:24:08.653Z,12.1
2022-11-05T09:26:13.357Z,12.1
2022-11-05T09:28:17.303Z,12
2022-11-05T09:30:17.668Z,12
2022-11-05T09:32:19.065Z,11.8
2022-11-05T09:34:20.476Z,11.5
2022-11-05T09:36:21.880Z,11.3
2022-11-05T09:38:23.258Z,11.4
2022-11-05T09:40:27.969Z,11.2
2022-11-05T09:42:29.372Z,11.1
2022-11-05T09:44:30.752Z,11.2
2022-11-05T09:46:32.133Z,10.9
2022-11-05T09:48:33.558Z,10.7
2022-11-05T09:50:34.950Z,10.6
2022-11-05T09:52:36.328Z,10.6
2022-11-05T09:54:41.073Z,10.6
2022-11-05T09:56:42.457Z,10.6
2022-11-05T09:58:43.992Z,10.6
2022-11-05T10:00:45.303Z,10.5
2022-11-05T10:02:46.680Z,10.6
2022-11-05T10:04:48.093Z,10.6
2022-11-05T10:06:49.481Z,10.7
2022-11-05T10:08:54.206Z,10.8
2022-11-05T10:10:55.580Z,10.9
2022-11-05T10:13:59.325Z,11.1
2022-11-05T10:16:00.736Z,11.2
2022-11-05T10:18:02.143Z,11
2022-11-05T10:20:03.531Z,11.1
2022-11-05T10:22:08.262Z,11.4
2022-11-05T10:24:09.751Z,11.3
2022-11-05T10:26:11.207Z,11.4
2022-11-05T10:36:21.325Z,11.7
2022-11-05T10:38:22.712Z,11.8
2022-11-05T10:40:24.159Z,11.9
2022-11-05T10:42:25.531Z,11.9
2022-11-05T10:44:26.913Z,11.9
2022-11-05T10:46:28.315Z,11.9
2022-11-05T10:48:29.720Z,11.7
2022-11-05T10:56:39.380Z,11.8
2022-11-05T11:00:42.321Z,12
2022-11-05T11:02:43.587Z,12
2022-11-05T11:04:48.313Z,11.8
2022-11-05T11:06:49.681Z,11.9
2022-11-05T11:08:51.085Z,11.8
2022-11-05T11:11:13.974Z,11.6
2022-11-05T11:13:15.345Z,11.6
2022-11-05T11:15:16.772Z,11.6
2022-11-05T11:17:21.456Z,11.8
2022-11-05T11:19:22.868Z,11.7
2022-11-05T11:21:24.276Z,11.5
2022-11-05T11:23:25.658Z,11.5
2022-11-05T11:25:27.044Z,11.5
2022-11-05T11:27:28.495Z,11.5
2022-11-05T11:29:29.838Z,11.5
2022-11-05T11:31:34.581Z,11.5
2022-11-05T11:33:35.994Z,11.5
2022-11-05T11:35:37.389Z,11.6
2022-11-05T11:37:38.762Z,11.6
2022-11-05T11:39:40.203Z,11.5
2022-11-05T11:41:41.537Z,11.5
2022-11-05T11:43:42.931Z,11.5
2022-11-05T11:45:47.621Z,11.5
2022-11-05T11:47:49.040Z,11.6
2022-11-05T11:49:50.436Z,11.5
2022-11-05T11:51:51.822Z,11.7
2022-11-05T11:53:53.228Z,11.8
2022-11-05T11:55:54.595Z,11.8
2022-11-05T11:57:55.982Z,11.7
2022-11-05T12:00:09.485Z,11.6
2022-11-05T12:02:02.241Z,11.6
2022-11-05T12:04:03.519Z,11.6
2022-11-05T12:05:05.832Z,11.5
2022-11-05T12:07:07.215Z,11.6
2022-11-05T12:09:08.604Z,11.6
2022-11-05T12:11:09.995Z,11.6
2022-11-05T12:13:14.734Z,11.5
2022-11-05T12:15:16.145Z,11.5
2022-11-05T12:17:17.515Z,11.4
2022-11-05T12:19:18.933Z,11.4
2022-11-05T12:21:40.687Z,11.4
2022-11-05T12:23:21.670Z,11.4
2022-11-05T12:25:23.147Z,11.3
2022-11-05T12:27:27.809Z,11.2
2022-11-05T12:29:34.478Z,11.2
2022-11-05T12:31:30.621Z,11.2
2022-11-05T12:33:31.982Z,11.2
2022-11-05T12:35:33.362Z,11.2
2022-11-05T12:37:34.743Z,11.3
2022-11-05T12:39:36.131Z,11.3
2022-11-05T12:41:40.855Z,11.3
2022-11-05T12:43:42.259Z,11.3
2022-11-05T12:45:43.618Z,11.3
2022-11-05T12:47:45.047Z,11.3
2022-11-05T12:49:46.457Z,11.3
2022-11-05T12:51:47.823Z,11.3
2022-11-05T12:53:49.229Z,11.4
2022-11-05T12:55:53.901Z,11.3
2022-11-05T12:57:55.326Z,11.4
2022-11-05T12:59:56.706Z,11.4
2022-11-05T13:00:59.123Z,11.3
2022-11-05T13:03:00.447Z,11.4
2022-11-05T13:07:03.261Z,11.4
2022-11-05T13:11:09.341Z,11.3
2022-11-05T13:13:11.057Z,11.3
2022-11-05T13:15:12.152Z,11.3
2022-11-05T13:23:21.052Z,11.1
2022-11-05T13:33:28.005Z,11.2
2022-11-05T13:35:29.455Z,11.1
2022-11-05T13:37:34.138Z,11.1
2022-11-05T13:39:35.550Z,11.1
2022-11-05T13:41:36.929Z,11.1
2022-11-05T13:43:38.308Z,11.2
2022-11-05T13:45:39.689Z,11
2022-11-05T13:47:41.125Z,11
2022-11-05T13:49:42.529Z,11
2022-11-05T13:51:47.225Z,11
2022-11-05T13:53:48.627Z,10.9
2022-11-05T13:55:50.030Z,11
2022-11-05T13:58:53.799Z,11
2022-11-05T14:00:55.211Z,10.9
2022-11-05T14:02:56.625Z,10.9
2022-11-05T14:05:01.816Z,10.9
2022-11-05T14:07:02.739Z,10.9
2022-11-05T14:09:04.102Z,10.8
2022-11-05T14:11:05.504Z,10.8
2022-11-05T14:13:06.903Z,10.8
2022-11-05T14:15:08.309Z,10.8
2022-11-05T14:17:09.703Z,10.9
2022-11-05T14:19:14.450Z,10.8
2022-11-05T14:21:15.804Z,10.8
2022-11-05T14:23:17.187Z,10.9
2022-11-05T14:25:18.617Z,10.9
2022-11-05T14:27:20.008Z,10.9
2022-11-05T14:29:21.375Z,10.9
2022-11-05T14:31:31.367Z,10.9
2022-11-05T14:33:27.472Z,10.9
2022-11-05T14:35:28.879Z,10.9
2022-11-05T14:37:30.311Z,10.9
2022-11-05T14:39:31.665Z,10.9
2022-11-05T14:41:33.069Z,10.9
2022-11-05T14:43:34.491Z,11
2022-11-05T14:45:35.874Z,11
2022-11-05T14:47:40.558Z,11
2022-11-05T14:49:41.982Z,11
2022-11-05T14:54:00.003Z,10.8
2022-11-05T14:56:01.450Z,10.9
2022-11-05T14:58:02.795Z,10.8
2022-11-05T15:02:09.099Z,10.7
2022-11-05T15:04:10.377Z,10.6
2022-11-05T15:06:11.713Z,10.6
2022-11-05T15:08:13.108Z,10.5
2022-11-05T15:10:14.510Z,10.5
2022-11-05T15:12:15.899Z,10.4
2022-11-05T15:14:20.623Z,10.4
2022-11-05T15:16:21.998Z,10.3
2022-11-05T15:18:25.075Z,10.3
2022-11-05T15:20:26.374Z,10.2
2022-11-05T15:22:27.763Z,10.2
2022-11-05T15:24:29.148Z,10.3
2022-11-05T15:26:30.623Z,10.3
2022-11-05T15:28:35.224Z,10.2
2022-11-05T15:30:36.621Z,10.2
2022-11-05T15:32:38.616Z,10.3
2022-11-05T15:34:39.400Z,10.2
2022-11-05T15:36:40.802Z,10.2
2022-11-05T15:38:56.626Z,10.2
2022-11-05T15:40:43.595Z,10.2
2022-11-05T15:42:48.279Z,10.2
2022-11-05T15:44:49.686Z,10.2
2022-11-05T15:46:51.092Z,10.2
2022-11-05T15:47:53.484Z,10.1
2022-11-05T15:49:54.886Z,10.1
2022-11-05T15:51:56.237Z,10
2022-11-05T15:54:28.664Z,10.1
2022-11-05T15:56:02.344Z,10.1
2022-11-05T16:02:06.656Z,10
2022-11-05T16:04:09.847Z,9.9
2022-11-05T16:06:09.280Z,10
2022-11-05T16:08:10.676Z,10
2022-11-05T16:10:15.392Z,9.9
2022-11-05T16:12:16.797Z,9.9
2022-11-05T16:14:18.198Z,9.9
2022-11-05T16:16:19.590Z,10
2022-11-05T16:18:20.994Z,10
2022-11-05T16:20:22.403Z,9.9
2022-11-05T16:22:23.799Z,9.9
2022-11-05T16:24:29.430Z,10
2022-11-05T16:27:00.770Z,10
2022-11-05T16:28:31.274Z,10
2022-11-05T16:30:32.702Z,9.9
2022-11-05T16:32:34.108Z,10
2022-11-05T16:34:35.476Z,10
2022-11-05T16:36:36.884Z,10
2022-11-05T16:38:41.596Z,9.9
2022-11-05T16:40:43.009Z,9.9
2022-11-05T16:42:44.377Z,9.9
2022-11-05T16:45:48.165Z,10
2022-11-05T16:47:49.548Z,9.9
2022-11-05T16:49:50.940Z,10
2022-11-05T16:55:58.435Z,10
2022-11-05T16:57:59.841Z,10
2022-11-05T17:02:02.773Z,10
2022-11-05T17:04:04.026Z,10
2022-11-05T17:06:08.713Z,9.9
2022-11-05T17:08:10.473Z,10
2022-11-05T17:10:11.498Z,10
2022-11-05T17:12:12.913Z,10
2022-11-05T17:14:14.294Z,9.9
2022-11-05T17:16:15.684Z,9.9
2022-11-05T17:18:18.991Z,9.9
2022-11-05T17:20:21.773Z,9.9
2022-11-05T17:22:23.171Z,9.9
2022-11-05T17:24:24.589Z,9.8
2022-11-05T17:26:25.955Z,9.8
2022-11-05T17:28:27.384Z,9.8
2022-11-05T17:30:28.799Z,9.9
2022-11-05T17:32:30.240Z,9.9
2022-11-05T17:34:34.869Z,9.9
2022-11-05T17:36:36.290Z,9.9
2022-11-05T17:38:37.662Z,9.8
2022-11-05T17:39:40.035Z,9.8
2022-11-05T17:41:41.412Z,9.8
2022-11-05T17:43:42.804Z,9.8
2022-11-05T17:45:44.224Z,9.8
2022-11-05T17:55:54.535Z,9.9
2022-11-05T17:57:55.915Z,9.8
2022-11-05T17:59:57.310Z,9.9
2022-11-05T18:02:02.184Z,9.9
2022-11-05T18:04:08.735Z,9.8
2022-11-05T18:06:04.797Z,9.8
2022-11-05T18:08:06.206Z,9.8
2022-11-05T18:10:07.601Z,9.8
2022-11-05T18:12:09.020Z,9.9
2022-11-05T18:14:10.404Z,9.9
2022-11-05T18:16:15.111Z,9.9
2022-11-05T18:18:16.509Z,10
2022-11-05T18:20:19.364Z,10
2022-11-05T18:22:19.300Z,10.1
2022-11-05T18:24:20.724Z,10.1
2022-11-05T18:26:22.092Z,10.1
2022-11-05T18:28:23.489Z,10.1
2022-11-05T18:30:28.190Z,10.1
2022-11-05T18:32:29.581Z,10.1
2022-11-05T18:34:30.981Z,10.2
2022-11-05T18:40:56.694Z,10.2
2022-11-05T18:45:02.763Z,10.1
2022-11-05T18:47:04.201Z,10.2
2022-11-05T18:49:05.596Z,10.1
2022-11-05T18:51:06.993Z,10.1
2022-11-05T18:53:08.377Z,10
2022-11-05T18:55:09.779Z,10
2022-11-05T18:57:14.486Z,10.1
2022-11-05T18:59:36.026Z,10.1
2022-11-05T19:01:17.292Z,10
2022-11-05T19:03:18.664Z,10
2022-11-05T19:05:28.939Z,9.9
2022-11-05T19:07:21.479Z,10
2022-11-05T19:09:22.876Z,10
2022-11-05T19:11:27.577Z,10
2022-11-05T19:13:28.984Z,9.9
2022-11-05T19:15:30.397Z,10
2022-11-05T19:17:31.773Z,9.9
2022-11-05T19:19:33.184Z,10
2022-11-05T19:21:34.548Z,10
2022-11-05T19:23:35.971Z,10
2022-11-05T19:25:40.708Z,10
2022-11-05T19:27:42.090Z,10
2022-11-05T19:29:43.456Z,10
2022-11-05T19:30:45.821Z,9.9
2022-11-05T19:32:47.239Z,9.9
2022-11-05T19:34:48.689Z,9.9
2022-11-05T19:36:50.056Z,10
2022-11-05T19:38:54.738Z,10
2022-11-05T19:40:56.145Z,10
2022-11-05T19:42:57.543Z,10
2022-11-05T19:45:16.722Z,10
2022-11-05T19:47:00.325Z,10
2022-11-05T19:49:01.737Z,10
2022-11-05T19:51:03.113Z,10
2022-11-05T19:53:07.812Z,10
2022-11-05T19:55:12.110Z,10
2022-11-05T19:57:10.648Z,10
2022-11-05T19:59:12.064Z,10
2022-11-05T20:01:13.528Z,10.1
2022-11-05T20:03:14.964Z,10.1
2022-11-05T20:05:16.261Z,10.1
2022-11-05T20:07:20.950Z,10.1
2022-11-05T20:09:23.132Z,10.1
2022-11-05T20:11:23.742Z,10
2022-11-05T20:13:25.184Z,10
2022-11-05T20:15:26.554Z,10
2022-11-05T20:17:27.949Z,10
2022-11-05T20:19:29.350Z,10
2022-11-05T20:21:34.089Z,10.1
2022-11-05T20:23:35.434Z,10.1
2022-11-05T20:25:36.832Z,10.1
2022-11-05T20:26:39.204Z,10.2
2022-11-05T20:28:40.630Z,10.2
2022-11-05T20:30:42.017Z,10.1
2022-11-05T20:32:43.391Z,10.1
2022-11-05T20:34:48.106Z,10.2
2022-11-05T20:36:49.495Z,10.1
2022-11-05T20:38:50.921Z,10.1
2022-11-05T20:40:52.324Z,10.1
2022-11-05T20:42:53.724Z,10.1
2022-11-05T20:44:55.111Z,10
2022-11-05T20:46:56.543Z,10
2022-11-05T20:49:01.312Z,10
2022-11-05T20:51:02.685Z,10
2022-11-05T20:53:04.097Z,10.1
2022-11-05T20:55:05.474Z,10
2022-11-05T20:57:06.873Z,10
2022-11-05T20:59:08.288Z,9.9
2022-11-05T21:01:09.763Z,9.9
2022-11-05T21:03:14.385Z,9.9
2022-11-05T21:05:15.790Z,9.9
2022-11-05T21:07:17.180Z,9.9
2022-11-05T21:09:20.156Z,9.9
2022-11-05T21:11:21.494Z,9.9
2022-11-05T21:13:22.898Z,9.9
2022-11-05T21:15:24.327Z,9.9
2022-11-05T21:17:29.005Z,9.9
2022-11-05T21:21:31.818Z,9.8
2022-11-05T21:24:35.568Z,9.8
2022-11-05T21:26:36.978Z,9.8
2022-11-05T21:28:38.357Z,9.7
2022-11-05T21:30:43.075Z,9.8
2022-11-05T21:32:44.456Z,9.8
2022-11-05T21:34:45.870Z,9.8
2022-11-05T21:36:47.422Z,9.8
2022-11-05T21:38:48.695Z,9.7
2022-11-05T21:40:51.029Z,9.7
2022-11-05T21:42:52.414Z,9.7
2022-11-05T21:45:00.267Z,9.7
2022-11-05T21:46:58.527Z,9.7
2022-11-05T21:48:59.969Z,9.6
2022-11-05T21:51:01.325Z,9.6
2022-11-05T21:53:02.729Z,9.7
2022-11-05T21:55:04.162Z,9.6
2022-11-05T21:57:09.780Z,9.6
2022-11-05T21:59:10.202Z,9.6
2022-11-05T22:01:11.717Z,9.6
2022-11-05T22:03:13.049Z,9.5
2022-11-05T22:05:14.418Z,9.5
2022-11-05T22:07:15.819Z,9.4
2022-11-05T22:09:17.221Z,9.4
2022-11-05T22:11:18.631Z,9.3
2022-11-05T22:13:23.300Z,9.3
2022-11-05T22:15:24.718Z,9.4
2022-11-05T22:17:26.105Z,9.4
2022-11-05T22:19:49.134Z,9.2
2022-11-05T22:21:50.573Z,9.2
2022-11-05T22:23:51.958Z,9.3
2022-11-05T22:25:56.612Z,9.3
2022-11-05T22:27:58.050Z,9.3
2022-11-05T22:29:59.413Z,9.3
2022-11-05T22:32:00.825Z,9.2
2022-11-05T22:34:02.262Z,9.2
2022-11-05T22:36:03.624Z,9.3
2022-11-05T22:38:05.066Z,9.3
2022-11-05T22:40:09.801Z,9.2
2022-11-05T22:42:11.238Z,9.2
2022-11-05T22:44:12.551Z,9.2
2022-11-05T22:46:13.917Z,9.2
2022-11-05T22:48:15.816Z,9.3
2022-11-05T22:50:16.717Z,9.3
2022-11-05T22:52:18.117Z,9.3
2022-11-05T22:54:22.824Z,9.2
2022-11-05T22:56:24.248Z,9.2
2022-11-05T22:58:25.595Z,9.2
2022-11-05T23:00:26.994Z,9.2
2022-11-05T23:02:28.518Z,9.3
2022-11-05T23:04:29.778Z,9.2
2022-11-05T23:06:31.231Z,9.3
2022-11-05T23:08:35.871Z,9.3
2022-11-05T23:10:37.277Z,9.3
2022-11-05T23:12:38.656Z,9.3
2022-11-05T23:29:55.551Z,9.2
2022-11-05T23:33:58.350Z,9.2
2022-11-05T23:36:03.037Z,9.2
2022-11-05T23:38:04.454Z,9.2
2022-11-05T23:40:05.853Z,9.2
2022-11-05T23:42:07.260Z,9.2
2022-11-05T23:44:08.678Z,9.2
2022-11-05T23:46:10.049Z,9.2
2022-11-05T23:48:11.832Z,9.2
2022-11-05T23:50:16.158Z,9.2
2022-11-05T23:52:17.552Z,9.2
2022-11-05T23:54:18.931Z,9.1
2022-11-05T23:56:20.360Z,9.1
2022-11-05T23:58:21.728Z,9
